Time;durP1;ratioP1;P1;durP2;ratioP2;P2;SDS_P1;SDS_P2;PMS_P1;PMS_P2;Temp;Humidity;BMP_temperature;BMP_pressure;BME280_temperature;BME280_humidity;BME280_pressure;Samples;Min_cycle;Max_cycle;Signal;HPM_P1;HPM_P2
2022/08/26 00:02:05;;;;;;;18.97;13.53;;;22.60;99.90;;;;;;5099079;28;20443;-81
2022/08/26 00:04:50;;;;;;;21.03;13.10;;;22.50;99.90;;;;;;5098733;28;20396;-82
2022/08/26 00:07:34;;;;;;;14.83;13.30;;;22.50;99.90;;;;;;5099323;28;20790;-80
2022/08/26 00:10:20;;;;;;;16.13;12.27;;;22.50;99.90;;;;;;5098693;28;20384;-82
2022/08/26 00:13:05;;;;;;;16.30;11.23;;;22.50;99.90;;;;;;5100071;28;20411;-81
2022/08/26 00:15:50;;;;;;;14.17;10.20;;;22.50;99.90;;;;;;5098873;28;20387;-80
2022/08/26 00:18:35;;;;;;;20.27;11.67;;;22.40;99.90;;;;;;5098335;28;20451;-82
2022/08/26 00:21:19;;;;;;;16.20;12.07;;;22.30;99.90;;;;;;5098350;28;20454;-80
2022/08/26 00:24:04;;;;;;;14.63;13.00;;;22.20;99.90;;;;;;5097583;28;20384;-83
2022/08/26 00:26:48;;;;;;;16.80;14.40;;;22.30;99.90;;;;;;5097836;28;20422;-80
2022/08/26 00:29:33;;;;;;;12.60;11.50;;;22.30;99.90;;;;;;5098626;28;20400;-82
2022/08/26 00:32:17;;;;;;;13.20;11.40;;;22.30;99.90;;;;;;5098233;28;20411;-81
2022/08/26 00:35:03;;;;;;;15.63;12.93;;;22.10;99.90;;;;;;5098428;28;20408;-79
2022/08/26 00:37:48;;;;;;;14.77;12.13;;;22.00;99.90;;;;;;5097454;28;20564;-82
2022/08/26 00:40:36;;;;;;;19.70;12.47;;;22.10;99.90;;;;;;5098114;28;20407;-80
2022/08/26 00:43:21;;;;;;;14.50;11.67;;;22.20;99.90;;;;;;5098176;28;20392;-83
2022/08/26 00:46:11;;;;;;;19.70;11.77;;;22.20;99.90;;;;;;5102193;28;20885;-81
2022/08/26 00:49:05;;;;;;;14.33;12.27;;;22.20;99.90;;;;;;5102817;28;20411;-80
2022/08/26 00:51:52;;;;;;;14.80;12.33;;;22.20;99.90;;;;;;5101941;28;20734;-80
2022/08/26 00:54:48;;;;;;;17.90;10.70;;;22.20;99.90;;;;;;5101811;28;20771;-80
2022/08/26 00:57:34;;;;;;;16.87;11.33;;;22.10;99.90;;;;;;5102098;28;20475;-79
2022/08/26 01:00:23;;;;;;;15.77;10.30;;;22.00;99.90;;;;;;5102633;28;20400;-80
2022/08/26 01:03:08;;;;;;;14.63;12.73;;;21.90;99.90;;;;;;5102729;28;20388;-82
2022/08/26 01:05:56;;;;;;;12.77;11.60;;;22.00;99.90;;;;;;5101775;28;20389;-81
2022/08/26 01:08:41;;;;;;;15.53;12.07;;;22.00;99.90;;;;;;5101400;28;20761;-81
2022/08/26 01:11:26;;;;;;;14.93;11.43;;;22.00;99.90;;;;;;5103314;28;20396;-80
2022/08/26 01:14:12;;;;;;;13.07;11.77;;;22.00;99.90;;;;;;5102527;28;20899;-80
2022/08/26 01:16:57;;;;;;;16.13;12.00;;;22.00;99.90;;;;;;5101813;28;20494;-81
2022/08/26 01:19:46;;;;;;;12.27;11.07;;;22.00;99.90;;;;;;5101762;28;20783;-81
2022/08/26 01:22:50;;;;;;;13.17;11.30;;;22.00;99.90;;;;;;5103058;28;20481;-80
2022/08/26 01:25:40;;;;;;;13.80;10.47;;;22.00;99.90;;;;;;5102424;28;20381;-80
2022/08/26 01:28:29;;;;;;;17.63;10.70;;;22.00;99.90;;;;;;5102568;28;20498;-81
2022/08/26 01:31:16;;;;;;;18.77;11.80;;;21.90;99.90;;;;;;5102688;28;20445;-80
2022/08/26 01:34:20;;;;;;;16.80;11.77;;;21.80;99.90;;;;;;5104140;28;20449;-81
2022/08/26 01:37:12;;;;;;;15.40;12.10;;;21.70;99.90;;;;;;5105197;28;20447;-81
2022/08/26 01:39:57;;;;;;;13.37;12.07;;;21.60;99.90;;;;;;5104494;28;20533;-80
2022/08/26 01:42:42;;;;;;;15.30;11.60;;;21.70;99.90;;;;;;5104968;28;20443;-82
2022/08/26 01:45:30;;;;;;;13.03;11.07;;;21.60;99.90;;;;;;5105888;28;20387;-81
2022/08/26 01:48:19;;;;;;;12.80;11.53;;;21.70;99.90;;;;;;5107570;28;20446;-82
2022/08/26 01:51:08;;;;;;;14.97;12.33;;;21.60;99.90;;;;;;5109267;28;20415;-82
2022/08/26 01:53:53;;;;;;;19.33;11.60;;;21.60;99.90;;;;;;5115201;28;20395;-82
2022/08/26 01:56:38;;;;;;;13.43;11.00;;;21.70;99.90;;;;;;5116127;28;20470;-80
2022/08/26 01:59:23;;;;;;;16.40;10.80;;;21.60;99.90;;;;;;5115267;28;20376;-80
2022/08/26 02:02:08;;;;;;;16.20;11.47;;;21.70;99.90;;;;;;5117494;28;20388;-80
2022/08/26 02:04:57;;;;;;;12.97;11.47;;;21.70;99.90;;;;;;5118164;28;20418;-80
2022/08/26 02:07:42;;;;;;;11.97;10.37;;;21.70;99.90;;;;;;5118072;28;20379;-80
2022/08/26 02:10:27;;;;;;;11.67;10.43;;;21.70;99.90;;;;;;5118155;28;20427;-80
2022/08/26 02:13:11;;;;;;;12.20;10.17;;;21.80;99.90;;;;;;5117537;28;20392;-80
2022/08/26 02:15:59;;;;;;;14.00;11.57;;;21.70;99.90;;;;;;5117773;28;20471;-80
2022/08/26 02:18:45;;;;;;;13.73;11.80;;;21.70;99.90;;;;;;5118276;28;20443;-79
2022/08/26 02:21:31;;;;;;;14.80;11.83;;;21.60;99.90;;;;;;5119041;28;20411;-80
2022/08/26 02:24:22;;;;;;;15.07;12.00;;;21.60;99.90;;;;;;5118516;28;20411;-80
2022/08/26 02:27:06;;;;;;;16.00;10.97;;;21.50;99.90;;;;;;5117545;28;20380;-79
2022/08/26 02:29:56;;;;;;;13.67;11.87;;;21.50;99.90;;;;;;5117542;28;20384;-79
2022/08/26 02:32:41;;;;;;;16.73;12.47;;;21.50;99.90;;;;;;5118131;28;20392;-80
2022/08/26 02:35:25;;;;;;;14.10;11.10;;;21.40;99.90;;;;;;5118771;28;20408;-81
2022/08/26 02:38:11;;;;;;;13.00;11.63;;;21.40;99.90;;;;;;5118351;28;20435;-80
2022/08/26 02:40:56;;;;;;;19.20;12.90;;;21.40;99.90;;;;;;5118226;28;20400;-79
2022/08/26 02:43:40;;;;;;;13.80;11.90;;;21.40;99.90;;;;;;5118061;28;20399;-79
2022/08/26 02:46:24;;;;;;;14.13;11.87;;;21.50;99.90;;;;;;5118097;28;20401;-80
2022/08/26 02:49:09;;;;;;;14.70;11.87;;;21.50;99.90;;;;;;5117373;28;20389;-79
2022/08/26 02:51:54;;;;;;;12.47;11.23;;;21.40;99.90;;;;;;5117590;28;20416;-79
2022/08/26 02:54:38;;;;;;;13.00;11.70;;;21.40;99.90;;;;;;5117731;28;20400;-79
2022/08/26 02:57:23;;;;;;;12.93;11.07;;;21.30;99.90;;;;;;5116740;28;20468;-80
2022/08/26 03:00:10;;;;;;;13.83;12.40;;;21.30;99.90;;;;;;5117511;28;20571;-80
2022/08/26 03:02:56;;;;;;;13.90;11.60;;;21.10;99.90;;;;;;5117020;28;20406;-79
2022/08/26 03:05:41;;;;;;;12.90;11.60;;;21.00;99.90;;;;;;5117474;28;20396;-80
2022/08/26 03:08:26;;;;;;;12.03;10.73;;;21.00;99.90;;;;;;5116568;28;20503;-79
2022/08/26 03:11:11;;;;;;;16.13;11.03;;;21.00;99.90;;;;;;5117145;28;20427;-79
2022/08/26 03:13:56;;;;;;;13.03;11.60;;;21.00;99.90;;;;;;5117038;28;20407;-80
2022/08/26 03:16:40;;;;;;;19.33;12.40;;;21.00;99.90;;;;;;5105105;28;20400;-82
2022/08/26 03:19:25;;;;;;;15.97;12.57;;;21.00;99.90;;;;;;5104453;28;20475;-82
2022/08/26 03:22:09;;;;;;;13.00;11.60;;;20.90;99.90;;;;;;5102666;28;20524;-82
2022/08/26 03:24:54;;;;;;;21.20;12.77;;;21.00;99.90;;;;;;5102565;28;20408;-82
2022/08/26 03:27:38;;;;;;;16.60;11.70;;;21.00;99.90;;;;;;5102503;28;20411;-82
2022/08/26 03:30:38;;;;;;;14.03;12.37;;;21.00;99.90;;;;;;5102615;28;20434;-82
2022/08/26 03:33:24;;;;;;;15.70;12.50;;;21.00;99.90;;;;;;5101504;28;20396;-82
2022/08/26 03:36:09;;;;;;;14.73;13.00;;;21.00;99.90;;;;;;5101941;28;20531;-82
2022/08/26 03:38:54;;;;;;;16.27;12.13;;;20.90;99.90;;;;;;5099344;28;20470;-82
2022/08/26 03:41:39;;;;;;;16.13;13.40;;;20.90;99.90;;;;;;5099871;28;20388;-82
2022/08/26 03:44:23;;;;;;;16.33;12.60;;;20.90;99.90;;;;;;5099778;28;20485;-82
2022/08/26 03:47:09;;;;;;;16.63;13.97;;;20.90;99.90;;;;;;5108243;28;20422;-81
2022/08/26 03:49:54;;;;;;;16.97;12.23;;;20.90;99.90;;;;;;5120877;28;20407;-82
2022/08/26 03:52:38;;;;;;;17.07;15.37;;;20.80;99.90;;;;;;5123451;28;20798;-81
2022/08/26 03:55:25;;;;;;;16.90;13.27;;;20.80;99.90;;;;;;5121759;28;20436;-81
2022/08/26 03:58:10;;;;;;;14.40;11.70;;;20.90;99.90;;;;;;5120574;28;21053;-82
2022/08/26 04:00:54;;;;;;;14.50;12.53;;;20.80;99.90;;;;;;5105464;28;20419;-82
2022/08/26 04:06:43;;;;;;;23.83;13.83;;;20.70;99.90;;;;;;5119441;28;20387;-82
2022/08/26 04:09:27;;;;;;;14.43;12.90;;;20.70;99.90;;;;;;5120632;28;20481;-82
2022/08/26 04:12:12;;;;;;;12.90;11.60;;;20.70;99.90;;;;;;5121619;28;20898;-81
2022/08/26 04:14:57;;;;;;;20.27;14.20;;;20.70;99.90;;;;;;5121020;28;20455;-81
2022/08/26 04:17:44;;;;;;;13.40;12.00;;;20.70;99.90;;;;;;5120125;28;20471;-81
2022/08/26 04:20:28;;;;;;;17.97;13.00;;;20.70;99.90;;;;;;5124659;28;20457;-81
2022/08/26 04:23:13;;;;;;;14.50;12.43;;;20.60;99.90;;;;;;5124455;28;20444;-82
2022/08/26 04:26:00;;;;;;;14.33;11.90;;;20.60;99.90;;;;;;5125907;28;20395;-82
2022/08/26 04:28:46;;;;;;;16.00;12.17;;;20.60;99.90;;;;;;5133318;28;20387;-80
2022/08/26 04:31:33;;;;;;;15.10;11.93;;;20.50;99.90;;;;;;5114660;28;20454;-82
2022/08/26 04:34:18;;;;;;;14.83;13.33;;;20.60;99.90;;;;;;5128625;28;20388;-83
2022/08/26 04:37:03;;;;;;;13.83;11.60;;;20.70;99.90;;;;;;5126380;28;20488;-81
2022/08/26 04:39:52;;;;;;;16.00;13.27;;;20.70;99.90;;;;;;5124832;28;20386;-82
2022/08/26 04:42:36;;;;;;;13.40;12.00;;;20.60;99.90;;;;;;5124523;28;20437;-82
2022/08/26 04:45:21;;;;;;;16.50;11.83;;;20.60;99.90;;;;;;5124455;28;20387;-83
2022/08/26 04:48:05;;;;;;;18.53;12.67;;;20.60;99.90;;;;;;5125834;28;20905;-82
2022/08/26 04:50:50;;;;;;;19.03;13.37;;;20.60;99.90;;;;;;5124357;28;20441;-82
2022/08/26 04:53:35;;;;;;;20.03;13.97;;;20.70;99.90;;;;;;5124938;28;20953;-82
2022/08/26 04:56:19;;;;;;;16.80;12.63;;;20.50;99.90;;;;;;5129441;28;20450;-82
2022/08/26 04:59:07;;;;;;;20.03;13.40;;;20.30;99.90;;;;;;5120933;28;20489;-82
2022/08/26 05:01:58;;;;;;;14.80;12.57;;;20.30;99.90;;;;;;5122818;28;20430;-82
2022/08/26 05:04:42;;;;;;;15.67;12.83;;;20.40;99.90;;;;;;5107820;28;20427;-82
2022/08/26 05:07:27;;;;;;;13.90;12.30;;;20.10;99.90;;;;;;5108866;28;20761;-83
2022/08/26 05:10:13;;;;;;;17.70;13.50;;;19.50;99.90;;;;;;5114367;28;20468;-80
2022/08/26 05:12:59;;;;;;;15.93;13.97;;;19.50;99.90;;;;;;5128378;28;20407;-79
2022/08/26 05:15:44;;;;;;;16.60;13.03;;;19.30;99.90;;;;;;5128169;28;20466;-78
2022/08/26 05:18:29;;;;;;;15.83;14.13;;;19.30;99.90;;;;;;5134256;28;20537;-78
2022/08/26 05:21:19;;;;;;;16.90;12.10;;;19.30;99.90;;;;;;5136002;28;20418;-78
2022/08/26 05:24:04;;;;;;;15.33;12.87;;;19.40;99.90;;;;;;5124204;28;20426;-82
2022/08/26 05:26:48;;;;;;;16.83;13.43;;;19.60;99.90;;;;;;5107267;28;20535;-82
2022/08/26 05:29:33;;;;;;;20.70;15.17;;;19.60;99.90;;;;;;5102879;28;20375;-82
2022/08/26 05:32:17;;;;;;;24.87;16.07;;;19.70;99.90;;;;;;5112988;28;20841;-82
2022/08/26 05:35:02;;;;;;;17.83;13.10;;;19.80;99.90;;;;;;5103120;28;20388;-83
2022/08/26 05:37:47;;;;;;;14.37;12.83;;;19.80;99.90;;;;;;5102632;28;20638;-82
2022/08/26 05:40:35;;;;;;;21.50;13.80;;;19.70;99.90;;;;;;5103712;28;20447;-82
2022/08/26 05:43:20;;;;;;;15.30;12.73;;;19.60;99.90;;;;;;5122415;28;20876;-82
2022/08/26 05:46:06;;;;;;;16.63;13.43;;;19.70;99.90;;;;;;5112976;28;20837;-82
2022/08/26 05:48:50;;;;;;;14.47;12.97;;;19.70;99.90;;;;;;5102228;28;20457;-82
2022/08/26 05:51:35;;;;;;;17.97;13.83;;;19.90;99.90;;;;;;5102719;28;20440;-82
2022/08/26 05:54:20;;;;;;;18.67;15.63;;;19.80;99.90;;;;;;5123141;28;20399;-82
2022/08/26 05:57:04;;;;;;;21.57;16.17;;;20.10;99.90;;;;;;5104055;28;21003;-82
2022/08/26 05:59:50;;;;;;;20.33;13.83;;;20.10;99.90;;;;;;5101699;28;20482;-82
2022/08/26 06:02:34;;;;;;;17.33;15.40;;;20.10;99.90;;;;;;5110420;28;20434;-83
2022/08/26 06:05:18;;;;;;;16.53;13.23;;;20.10;99.90;;;;;;5110290;28;20485;-82
2022/08/26 06:08:10;;;;;;;13.70;12.20;;;20.00;99.90;;;;;;5116708;28;20524;-82
2022/08/26 06:11:00;;;;;;;18.23;13.87;;;20.10;99.90;;;;;;5102140;28;20484;-82
2022/08/26 06:13:46;;;;;;;18.63;14.70;;;20.30;99.90;;;;;;5109206;28;20475;-82
2022/08/26 06:16:33;;;;;;;17.57;13.10;;;20.40;99.90;;;;;;5101716;28;20519;-82
2022/08/26 06:19:18;;;;;;;18.97;13.37;;;20.40;99.90;;;;;;5082011;28;20440;-82
2022/08/26 06:25:36;;;;;;;19.17;14.10;;;20.30;99.90;;;;;;5078787;28;20437;-82
2022/08/26 06:28:08;;;;;;;16.77;13.83;;;20.30;99.90;;;;;;5092448;28;20432;-82
2022/08/26 06:30:54;;;;;;;23.83;13.77;;;20.50;99.90;;;;;;5087532;28;20480;-82
2022/08/26 06:33:38;;;;;;;20.20;13.23;;;20.60;99.90;;;;;;5099383;28;20478;-82
2022/08/26 06:36:25;;;;;;;14.73;12.00;;;20.40;99.90;;;;;;5100261;28;20565;-80
2022/08/26 06:39:13;;;;;;;16.67;14.53;;;20.60;99.90;;;;;;5106251;28;20442;-80
2022/08/26 06:41:59;;;;;;;20.63;13.90;;;20.60;99.90;;;;;;5094278;28;20416;-80
2022/08/26 06:44:43;;;;;;;20.43;15.30;;;20.70;99.90;;;;;;5108361;28;20462;-79
2022/08/26 06:47:28;;;;;;;18.50;13.10;;;20.60;99.90;;;;;;5106757;28;20455;-80
2022/08/26 06:50:12;;;;;;;18.20;13.90;;;20.80;99.90;;;;;;5117958;28;20447;-80
2022/08/26 06:52:57;;;;;;;14.10;12.70;;;21.00;99.90;;;;;;5123015;28;20443;-81
2022/08/26 06:55:44;;;;;;;18.10;14.30;;;21.20;99.90;;;;;;5114647;28;20407;-81
2022/08/26 06:58:29;;;;;;;16.37;13.60;;;21.60;99.90;;;;;;5115564;28;20486;-81
2022/08/26 07:01:17;;;;;;;13.20;11.67;;;21.60;99.90;;;;;;5103181;28;20432;-81
2022/08/26 07:04:04;;;;;;;16.30;13.40;;;21.90;99.90;;;;;;5108972;28;20470;-82
2022/08/26 07:06:49;;;;;;;21.73;13.23;;;22.10;99.90;;;;;;5105437;28;20428;-81
2022/08/26 07:09:36;;;;;;;20.10;13.67;;;22.40;99.90;;;;;;5110492;28;20419;-82
2022/08/26 07:12:20;;;;;;;15.43;13.17;;;22.60;99.90;;;;;;5107855;28;20427;-82
2022/08/26 07:15:05;;;;;;;13.90;12.43;;;22.70;99.90;;;;;;5105059;28;20423;-82
2022/08/26 07:17:49;;;;;;;20.63;13.57;;;22.80;99.90;;;;;;5118370;28;21150;-82
2022/08/26 07:20:39;;;;;;;17.73;13.57;;;22.90;99.90;;;;;;5120142;28;20426;-81
2022/08/26 07:23:23;;;;;;;16.07;11.50;;;22.90;99.90;;;;;;5113539;28;20411;-81
2022/08/26 07:26:16;;;;;;;15.70;11.20;;;22.90;99.90;;;;;;5109596;28;20482;-81
2022/08/26 07:29:00;;;;;;;26.10;11.80;;;23.00;99.90;;;;;;5111847;28;20496;-83
2022/08/26 07:31:45;;;;;;;14.30;11.50;;;23.20;99.90;;;;;;5106275;28;20765;-81
2022/08/26 07:34:31;;;;;;;18.23;11.80;;;23.40;99.90;;;;;;5116761;28;20422;-83
2022/08/26 07:37:16;;;;;;;21.50;12.27;;;23.50;99.90;;;;;;5094862;28;20642;-81
2022/08/26 07:40:20;;;;;;;16.63;11.50;;;23.70;99.90;;;;;;5114368;28;20452;-82
2022/08/26 07:43:06;;;;;;;19.27;11.10;;;23.90;99.90;;;;;;5088338;28;20424;-82
2022/08/26 07:45:51;;;;;;;16.00;12.13;;;23.90;99.90;;;;;;5081103;28;20424;-83
2022/08/26 07:48:36;;;;;;;14.27;11.90;;;23.80;99.90;;;;;;5085403;28;20475;-82
2022/08/26 07:51:21;;;;;;;14.90;12.00;;;23.90;99.90;;;;;;5082602;28;20451;-82
2022/08/26 07:54:07;;;;;;;16.00;10.60;;;24.10;99.90;;;;;;5082011;28;20485;-82
2022/08/26 07:56:52;;;;;;;13.83;9.50;;;24.20;99.90;;;;;;5057094;28;20515;-81
2022/08/26 07:59:36;;;;;;;18.90;12.00;;;24.30;99.90;;;;;;5084798;28;20454;-82
2022/08/26 08:02:21;;;;;;;13.20;10.47;;;24.30;99.90;;;;;;5086268;28;20471;-83
2022/08/26 08:05:06;;;;;;;16.50;10.63;;;24.40;99.90;;;;;;5078051;28;20536;-83
2022/08/26 08:07:51;;;;;;;16.55;11.38;;;24.60;99.90;;;;;;5083224;28;20521;-82
2022/08/26 08:10:36;;;;;;;23.97;12.37;;;24.70;99.90;;;;;;5086560;28;20288;-84
2022/08/26 08:13:21;;;;;;;15.57;10.90;;;24.80;99.90;;;;;;5093510;28;20447;-82
2022/08/26 08:16:07;;;;;;;20.57;10.13;;;24.90;99.90;;;;;;5109265;28;20489;-82
2022/08/26 08:18:52;;;;;;;15.37;10.33;;;25.10;99.90;;;;;;5101230;28;20943;-82
2022/08/26 08:21:36;;;;;;;15.07;9.67;;;25.20;99.90;;;;;;5106092;28;20520;-82
2022/08/26 08:24:21;;;;;;;15.20;11.70;;;25.30;99.90;;;;;;5106443;28;20419;-82
2022/08/26 08:27:05;;;;;;;16.40;10.80;;;25.50;99.90;;;;;;5110287;28;20470;-82
2022/08/26 08:29:52;;;;;;;15.77;9.67;;;25.50;99.90;;;;;;5104875;28;20442;-82
2022/08/26 08:32:37;;;;;;;18.60;9.40;;;25.70;99.90;;;;;;5106542;28;20495;-82
2022/08/26 08:35:22;;;;;;;16.60;11.50;;;25.90;99.90;;;;;;5107054;28;20472;-82
2022/08/26 08:38:06;;;;;;;21.53;9.90;;;26.10;99.90;;;;;;5107402;28;20513;-82
2022/08/26 08:41:11;;;;;;;20.40;10.90;;;26.10;99.90;;;;;;5107099;28;20446;-82
2022/08/26 08:43:58;;;;;;;16.57;10.37;;;26.10;99.90;;;;;;5084228;28;20869;-82
2022/08/26 08:46:43;;;;;;;15.00;9.63;;;25.70;99.90;;;;;;5079086;28;20518;-82
2022/08/26 08:49:30;;;;;;;15.53;9.30;;;25.80;99.90;;;;;;5086114;28;20561;-81
2022/08/26 08:52:29;;;;;;;17.53;10.80;;;25.80;99.90;;;;;;5086652;28;20434;-82
2022/08/26 08:55:15;;;;;;;17.53;9.00;;;25.90;99.90;;;;;;5077685;28;20521;-82
2022/08/26 08:58:06;;;;;;;15.83;9.63;;;26.40;99.90;;;;;;5065255;28;20590;-82
2022/08/26 09:00:59;;;;;;;14.53;10.10;;;26.60;99.90;;;;;;5084979;28;20478;-82
2022/08/26 09:04:06;;;;;;;15.50;9.23;;;26.90;99.90;;;;;;5077952;28;21043;-82
2022/08/26 09:06:54;;;;;;;16.27;9.97;;;26.80;99.90;;;;;;5081565;28;20523;-82
2022/08/26 09:09:53;;;;;;;18.50;10.00;;;26.80;99.90;;;;;;5082997;28;20503;-82
2022/08/26 09:12:37;;;;;;;16.87;8.80;;;26.50;99.90;;;;;;5084765;28;20963;-82
2022/08/26 09:15:53;;;;;;;14.20;10.70;;;26.50;99.90;;;;;;5106040;27;20926;-82
2022/08/26 09:18:55;;;;;;;22.63;11.17;;;26.60;99.90;;;;;;5111313;28;20513;-82
2022/08/26 09:21:39;;;;;;;16.57;9.57;;;27.10;99.90;;;;;;5105667;28;20560;-82
2022/08/26 09:24:25;;;;;;;16.03;10.67;;;27.50;99.90;;;;;;5102495;28;20473;-83
2022/08/26 09:27:10;;;;;;;22.60;10.97;;;27.70;99.90;;;;;;5111719;28;20479;-82
2022/08/26 09:29:58;;;;;;;27.40;8.70;;;27.80;99.90;;;;;;5106358;28;20878;-80
2022/08/26 09:32:56;;;;;;;14.27;9.87;;;28.10;99.90;;;;;;5108382;27;20434;-82
2022/08/26 09:35:45;;;;;;;12.07;10.00;;;27.70;99.90;;;;;;5106700;28;20451;-82
2022/08/26 09:38:33;;;;;;;10.93;8.57;;;27.90;99.90;;;;;;5118627;27;20505;-81
2022/08/26 09:41:25;;;;;;;13.27;8.07;;;28.40;99.90;;;;;;5107685;27;20464;-83
2022/08/26 09:44:14;;;;;;;19.50;9.23;;;27.80;99.90;;;;;;5116156;28;20950;-82
2022/08/26 09:47:02;;;;;;;11.00;8.27;;;27.50;99.90;;;;;;5107097;28;20454;-83
2022/08/26 09:49:57;;;;;;;19.53;9.03;;;28.10;99.90;;;;;;5104264;28;20442;-82
2022/08/26 09:52:41;;;;;;;21.93;8.77;;;28.60;99.90;;;;;;5101043;28;20435;-82
2022/08/26 09:55:25;;;;;;;17.17;8.27;;;28.40;99.90;;;;;;5102418;28;20414;-82
2022/08/26 09:58:30;;;;;;;14.53;7.77;;;28.60;99.90;;;;;;5110398;28;21162;-81
2022/08/26 10:01:29;;;;;;;19.67;10.17;;;29.20;99.90;;;;;;5107037;28;20426;-83
2022/08/26 10:04:22;;;;;;;18.90;9.80;;;29.30;99.90;;;;;;5117691;28;20514;-82
2022/08/26 10:07:08;;;;;;;13.90;8.77;;;29.00;99.90;;;;;;5108029;28;20437;-82
2022/08/26 10:09:52;;;;;;;16.43;8.03;;;29.40;99.90;;;;;;5113194;27;20767;-82
2022/08/26 10:12:46;;;;;;;13.50;8.53;;;29.80;99.90;;;;;;5113829;28;20461;-82
2022/08/26 10:15:41;;;;;;;14.63;8.67;;;30.00;99.90;;;;;;5103697;28;20443;-82
2022/08/26 10:18:39;;;;;;;19.10;8.23;;;30.30;99.90;;;;;;5114374;28;20459;-83
2022/08/26 10:21:30;;;;;;;12.50;8.83;;;29.50;99.90;;;;;;5110495;28;20446;-81
2022/08/26 10:24:20;;;;;;;18.10;11.90;;;29.60;99.90;;;;;;5112992;28;20431;-80
2022/08/26 10:27:35;;;;;;;19.97;13.07;;;29.00;99.90;;;;;;5108652;28;20752;-82
2022/08/26 10:30:25;;;;;;;18.00;8.97;;;29.90;99.90;;;;;;5101895;28;20591;-82
2022/08/26 10:33:14;;;;;;;17.83;7.23;;;30.70;99.90;;;;;;5106814;28;20461;-83
2022/08/26 10:36:03;;;;;;;18.97;13.27;;;30.90;99.90;;;;;;5102344;28;20414;-82
2022/08/26 10:38:47;;;;;;;16.70;12.03;;;30.50;99.90;;;;;;5115692;28;20454;-83
2022/08/26 10:41:38;;;;;;;10.93;7.83;;;30.60;99.90;;;;;;5102393;28;20439;-82
2022/08/26 10:44:25;;;;;;;19.63;9.50;;;31.30;99.90;;;;;;5103060;28;20454;-82
2022/08/26 10:47:23;;;;;;;16.20;9.07;;;31.10;99.90;;;;;;5112115;28;20434;-82
2022/08/26 10:50:08;;;;;;;17.13;9.27;;;31.30;99.90;;;;;;5106381;28;20181;-83
2022/08/26 10:53:03;;;;;;;19.90;8.70;;;31.60;99.90;;;;;;5109727;27;20184;-82
2022/08/26 10:56:06;;;;;;;14.10;8.20;;;31.20;99.90;;;;;;5108140;28;20919;-84
2022/08/26 10:59:23;;;;;;;9.00;7.63;;;30.80;99.90;;;;;;5108790;28;20212;-81
2022/08/26 11:02:27;;;;;;;15.73;10.80;;;29.90;99.90;;;;;;5110184;28;20172;-81
2022/08/26 11:05:18;;;;;;;16.80;10.40;;;29.50;99.90;;;;;;5099143;28;20513;-81
2022/08/26 11:08:33;;;;;;;29.97;15.37;;;29.40;99.90;;;;;;5109447;28;20466;-82
2022/08/26 11:11:41;;;;;;;16.30;10.63;;;30.00;99.90;;;;;;5106753;28;20515;-82
2022/08/26 11:14:34;;;;;;;21.07;12.87;;;30.30;99.90;;;;;;5110855;28;20442;-81
2022/08/26 11:17:54;;;;;;;12.43;9.13;;;29.70;99.90;;;;;;5103430;28;20204;-79
2022/08/26 11:20:43;;;;;;;14.23;10.10;;;29.20;99.90;;;;;;5107847;28;20720;-82
2022/08/26 11:23:45;;;;;;;12.30;8.67;;;28.90;99.90;;;;;;5102472;28;20454;-83
2022/08/26 11:26:34;;;;;;;15.33;9.03;;;28.40;99.90;;;;;;5103447;28;20475;-81
2022/08/26 11:29:56;;;;;;;18.97;9.83;;;28.50;99.90;;;;;;5106046;28;20475;-82
2022/08/26 11:32:52;;;;;;;12.20;9.13;;;28.30;99.90;;;;;;5109598;28;20455;-81
2022/08/26 11:35:46;;;;;;;12.70;9.07;;;28.60;99.90;;;;;;5092151;28;20790;-83
2022/08/26 11:38:32;;;;;;;19.60;8.93;;;28.60;99.90;;;;;;5080095;28;21780;-83
2022/08/26 11:41:21;;;;;;;17.63;11.77;;;29.00;99.90;;;;;;5069497;28;20516;-82
2022/08/26 11:44:08;;;;;;;12.37;9.73;;;28.90;99.90;;;;;;5084685;28;20440;-83
2022/08/26 11:46:56;;;;;;;16.10;11.80;;;28.70;99.90;;;;;;5084134;28;20415;-81
2022/08/26 11:49:40;;;;;;;33.80;20.63;;;29.10;99.90;;;;;;5078989;28;20504;-82
2022/08/26 11:52:24;;;;;;;23.20;18.03;;;30.00;99.90;;;;;;5068193;28;20443;-83
2022/08/26 11:55:13;;;;;;;19.03;7.60;;;30.10;99.90;;;;;;5090586;28;20482;-82
2022/08/26 11:57:59;;;;;;;23.60;7.85;;;30.00;99.90;;;;;;5086237;28;21007;-83
2022/08/26 12:01:05;;;;;;;15.05;9.30;;;30.40;99.90;;;;;;5083258;28;20619;-82
2022/08/26 12:04:17;;;;;;;23.92;16.38;;;31.00;99.90;;;;;;5083311;28;20244;-81
2022/08/26 12:07:03;;;;;;;23.80;17.85;;;31.40;99.90;;;;;;5041224;28;20266;-81
2022/08/26 12:09:59;;;;;;;10.35;8.95;;;30.90;99.90;;;;;;4991229;28;20227;-83
2022/08/26 12:13:00;;;;;;;13.43;6.40;;;30.60;99.90;;;;;;5017651;28;20325;-82
2022/08/26 12:16:06;;;;;;;15.18;7.75;;;30.40;99.90;;;;;;4938026;29;20322;-82
2022/08/26 12:19:29;;;;;;;17.63;8.82;;;30.60;99.90;;;;;;4917367;29;20226;-79
2022/08/26 12:22:34;;;;;;;27.85;21.27;;;30.60;99.90;;;;;;4923150;29;20222;-81
2022/08/26 12:25:38;;;;;;;12.20;7.95;;;31.20;99.30;;;;;;4902885;29;20293;-81
2022/08/26 12:28:30;;;;;;;11.20;7.45;;;32.00;98.90;;;;;;4886471;29;20712;-80
2022/08/26 12:31:38;;;;;;;14.13;7.50;;;32.10;95.70;;;;;;4868436;29;20193;-80
2022/08/26 12:34:24;;;;;;;9.77;6.90;;;31.50;95.10;;;;;;4885537;29;20226;-81
2022/08/26 12:37:11;;;;;;;21.85;7.95;;;30.80;94.30;;;;;;4880482;29;20227;-82
2022/08/26 12:40:34;;;;;;;14.23;8.75;;;30.40;96.80;;;;;;4908439;29;20223;-80
2022/08/26 12:43:42;;;;;;;12.85;6.45;;;30.40;97.40;;;;;;4893361;29;20684;-81
2022/08/26 12:46:28;;;;;;;11.82;7.60;;;30.90;96.00;;;;;;4889009;29;20233;-81
2022/08/26 12:49:18;;;;;;;16.77;7.38;;;31.50;94.90;;;;;;4917189;29;20306;-80
2022/08/26 12:52:28;;;;;;;14.00;7.72;;;32.40;95.40;;;;;;4980813;28;20281;-80
2022/08/26 12:55:23;;;;;;;12.38;6.38;;;32.30;93.50;;;;;;4929922;29;20292;-79
2022/08/26 12:58:22;;;;;;;10.40;6.82;;;33.00;93.40;;;;;;4967054;28;20265;-80
2022/08/26 13:01:36;;;;;;;14.23;6.78;;;33.60;92.00;;;;;;5014651;28;20254;-78
2022/08/26 13:04:39;;;;;;;20.88;9.18;;;34.70;89.10;;;;;;5019491;28;20293;-81
2022/08/26 13:07:45;;;;;;;17.25;12.30;;;34.70;88.30;;;;;;5045949;28;20210;-82
2022/08/26 13:10:50;;;;;;;10.70;7.30;;;33.70;89.60;;;;;;4998938;28;20191;-82
2022/08/26 13:13:37;;;;;;;12.70;9.55;;;33.30;90.10;;;;;;5019819;28;20188;-80
2022/08/26 13:16:26;;;;;;;18.58;13.45;;;33.40;87.90;;;;;;5009331;28;20309;-80
2022/08/26 13:19:19;;;;;;;16.15;8.10;;;32.00;91.50;;;;;;5020557;28;20202;-80
2022/08/26 13:22:04;;;;;;;11.27;7.72;;;31.60;92.80;;;;;;5059908;28;20190;-82
2022/08/26 13:24:54;;;;;;;13.00;6.93;;;33.20;91.70;;;;;;5047311;28;20257;-81
2022/08/26 13:27:39;;;;;;;43.13;32.30;;;33.80;90.00;;;;;;5035990;28;20222;-82
2022/08/26 13:30:24;;;;;;;13.35;8.27;;;33.40;90.60;;;;;;5044413;28;20290;-80
2022/08/26 13:33:11;;;;;;;13.90;7.32;;;33.40;90.50;;;;;;5004061;28;20331;-81
2022/08/26 13:35:58;;;;;;;15.85;7.80;;;33.80;87.40;;;;;;5032894;28;20187;-80
2022/08/26 13:38:44;;;;;;;15.05;8.30;;;34.10;87.80;;;;;;5047344;28;20185;-82
2022/08/26 13:41:28;;;;;;;19.25;7.85;;;34.30;84.70;;;;;;5113008;28;20307;-82
2022/08/26 13:44:16;;;;;;;9.15;6.80;;;34.00;87.30;;;;;;5091180;28;20245;-80
2022/08/26 13:47:00;;;;;;;14.93;8.68;;;33.40;88.80;;;;;;5123447;28;20208;-80
2022/08/26 13:49:45;;;;;;;13.35;7.65;;;33.00;90.00;;;;;;5118750;28;20223;-79
2022/08/26 13:52:30;;;;;;;9.77;6.22;;;32.70;90.30;;;;;;5113614;28;20188;-81
2022/08/26 13:55:15;;;;;;;13.27;6.93;;;31.70;91.90;;;;;;5117640;28;20510;-81
2022/08/26 13:58:02;;;;;;;8.87;6.73;;;30.90;94.00;;;;;;5106793;28;20219;-81
2022/08/26 14:00:47;;;;;;;13.40;6.17;;;30.40;94.10;;;;;;5118891;27;20656;-81
2022/08/26 14:03:33;;;;;;;10.53;6.93;;;30.00;95.00;;;;;;5102957;28;20422;-81
2022/08/26 14:06:19;;;;;;;10.80;6.60;;;29.60;97.20;;;;;;5102211;28;20423;-79
2022/08/26 14:09:03;;;;;;;14.60;6.30;;;29.30;99.30;;;;;;5116941;28;20564;-80
2022/08/26 14:11:47;;;;;;;17.00;7.13;;;29.00;99.90;;;;;;5118917;28;20458;-81
2022/08/26 14:14:32;;;;;;;11.10;6.77;;;28.80;99.90;;;;;;5110944;28;20842;-80
2022/08/26 14:17:20;;;;;;;9.90;7.73;;;28.60;99.90;;;;;;5107592;28;20939;-80
2022/08/26 14:20:07;;;;;;;13.00;7.10;;;28.30;99.90;;;;;;5129164;28;20424;-81
2022/08/26 14:22:52;;;;;;;9.33;6.17;;;28.00;99.90;;;;;;5133571;28;20406;-81
2022/08/26 14:25:45;;;;;;;18.13;6.47;;;27.90;99.90;;;;;;5121622;28;20465;-80
2022/08/26 14:28:30;;;;;;;13.30;6.33;;;27.80;99.90;;;;;;5108933;28;20484;-80